Flight Track Log - Related Links

Times and Time Zones

All times are in EDT time to prevent confusion due to time zone crossing. See the UAL582 flight status page for this flight to view local times or setup timezone preferences in your user account.

Time Position Orientation Groundspeed Altitude Reporting Facility
EDT Latitude Longitude Course Direction KTS MPH feet Rate Location/Type
Sat 03:28:51 PM 32.7428 -117.2344 90° East 191 220 1,400  Level Los Angeles Center
Sat 03:30:05 PM 32.7478 -117.3342 273° West 234 269 4,000 2,074 Climbing Los Angeles Center
Sat 03:31:00 PM 32.6130 -117.0545 102° East  Level FlightAware Approximate
Sat 03:31:07 PM 32.6803 -117.3247 173° South 279 321 6,100  Level Los Angeles Center
Sat 03:32:00 PM 32.6046 -116.9158 84° East  Level FlightAware Approximate
Sat 03:32:21 PM 32.6508 -117.2369 112° Southeast 289 333 8,500  Level Los Angeles Center
Sat 03:33:00 PM 32.6167 -116.7760 90° East  Level FlightAware Approximate
Sat 03:33:23 PM 32.6317 -117.1200 101° East 303 349 10,800  Level Los Angeles Center
Sat 03:34:00 PM 32.6333 -116.6377 90° East  Level FlightAware Approximate
Sat 03:34:25 PM 32.6136 -117.0106 101° East 331 381 12,000  Level Los Angeles Center
Sat 03:35:26 PM 32.6183 -116.8858 87° East 369 425 13,800 2,049 Climbing Los Angeles Center
Sat 03:36:28 PM 32.6344 -116.7331 83° East 389 448 16,200 2,371 Climbing Los Angeles Center
Sat 03:37:30 PM 32.6472 -116.6042 83° East 397 457 18,700 1,984 Climbing Los Angeles Center
Sat 03:38:32 PM 32.6583 -116.4753 84° East 401 461 20,300 1,597 Climbing Los Angeles Center
Sat 03:39:34 PM 32.6953 -116.3478 71° East 416 479 22,000 1,561 Climbing Los Angeles Center
Sat 03:40:35 PM 32.7439 -116.2219 65° Northeast 427 491 23,500 1,378 Climbing Los Angeles Center
Sat 03:41:49 PM 32.8031 -116.0642 66° East 441 507 25,100 1,500 Climbing Los Angeles Center
Sat 03:42:51 PM 32.8617 -115.9022 67° East 449 517 26,900 1,403 Climbing Los Angeles Center
Sat 03:43:53 PM 32.8925 -115.7583 76° East 452 520 28,000 1,113 Climbing Los Angeles Center
Sat 03:44:55 PM 32.9239 -115.6117 76° East 456 525 29,200 1,355 Climbing Los Angeles Center
Sat 03:45:57 PM 32.9528 -115.4650 77° East 457 526 30,800 1,415 Climbing Los Angeles Center
Sat 03:46:58 PM 32.9819 -115.3164 77° East 461 531 32,100 1,073 Climbing Los Angeles Center
Sat 03:48:00 PM 33.0175 -115.1408 76° East 458 527 33,000 968 Climbing Los Angeles Center
Sat 03:49:02 PM 33.0475 -114.9933 76° East 457 526 34,100 1,065 Climbing Los Angeles Center
Sat 03:50:04 PM 33.0764 -114.8486 77° East 450 518 35,200 968 Climbing Los Angeles Center
Sat 03:51:06 PM 33.1044 -114.7031 77° East 450 518 36,100 774 Climbing Los Angeles Center
Sat 03:52:08 PM 33.1322 -114.5583 77° East 448 516 36,800 435 Climbing Los Angeles Center
Sat 03:53:10 PM 33.1586 -114.4133 78° East 449 517 37,000 94 Climbing Los Angeles Center
Sat 03:54:16 PM 33.1897 -114.2525 77° East 445 512 37,000  Level Albuquerque Center
Sat 03:55:17 PM 33.2169 -114.1056 77° East 446 513 37,000  Level Albuquerque Center
Sat 03:56:19 PM 33.2436 -113.9603 78° East 448 516 37,000  Level Albuquerque Center
Sat 03:57:20 PM 33.3078 -113.7986 65° Northeast 454 522 37,000  Level Albuquerque Center
Sat 03:58:22 PM 33.3867 -113.6794 52° Northeast 455 524 37,000  Level Albuquerque Center
Sat 03:59:23 PM 33.4661 -113.5581 52° Northeast 459 528 37,000  Level Albuquerque Center
Sat 04:00:25 PM 33.5444 -113.4386 52° Northeast 457 526 37,000  Level Albuquerque Center
Sat 04:01:26 PM 33.6228 -113.3192 52° Northeast 456 525 37,000  Level Albuquerque Center
Sat 04:02:28 PM 33.7000 -113.2008 52° Northeast 457 526 37,000  Level Albuquerque Center
Sat 04:03:29 PM 33.7786 -113.0786 52° Northeast 460 529 37,000  Level Albuquerque Center
Sat 04:04:31 PM 33.8578 -112.9569 52° Northeast 461 531 37,000  Level Albuquerque Center
Sat 04:05:33 PM 33.9508 -112.8092 53° Northeast 461 531 37,000  Level Albuquerque Center
Sat 04:06:34 PM 34.0297 -112.6856 52° Northeast 464 534 37,000  Level Albuquerque Center
Sat 04:07:36 PM 34.1086 -112.5608 53° Northeast 464 534 37,000  Level Albuquerque Center
Sat 04:08:37 PM 34.1867 -112.4361 53° Northeast 464 534 37,000  Level Albuquerque Center
Sat 04:09:39 PM 34.2647 -112.3108 53° Northeast 464 534 37,000  Level Albuquerque Center
Sat 04:10:40 PM 34.3439 -112.1844 53° Northeast 466 536 37,000  Level Albuquerque Center
Sat 04:11:42 PM 34.4214 -112.0592 53° Northeast 464 534 37,000  Level Albuquerque Center
Sat 04:12:43 PM 34.4997 -111.9347 53° Northeast 463 533 37,000  Level Albuquerque Center
Sat 04:13:45 PM 34.5772 -111.8094 53° Northeast 462 532 37,000  Level Albuquerque Center
Sat 04:14:46 PM 34.6536 -111.6850 53° Northeast 461 531 37,000  Level Albuquerque Center
Sat 04:15:48 PM 34.7464 -111.5364 53° Northeast 458 527 37,000  Level Albuquerque Center
Sat 04:16:49 PM 34.8225 -111.4125 53° Northeast 458 527 37,000  Level Albuquerque Center
Sat 04:17:51 PM 34.8981 -111.2881 53° Northeast 458 527 37,000  Level Albuquerque Center
Sat 04:18:53 PM 34.9728 -111.1631 54° Northeast 456 525 37,000  Level Albuquerque Center
Sat 04:19:54 PM 35.0492 -111.0375 53° Northeast 459 528 37,000  Level Albuquerque Center
Sat 04:20:56 PM 35.1281 -110.9061 54° Northeast 460 529 37,000  Level Albuquerque Center
Sat 04:21:57 PM 35.2131 -110.7636 54° Northeast 462 532 37,000  Level Albuquerque Center
Sat 04:22:59 PM 35.2850 -110.6419 54° Northeast 462 532 37,000  Level Albuquerque Center
Sat 04:24:00 PM 35.3592 -110.5197 53° Northeast 465 535 37,000  Level Albuquerque Center
Sat 04:25:02 PM 35.4428 -110.3767 54° Northeast 463 533 37,000  Level Albuquerque Center
Sat 04:26:04 PM 35.5156 -110.2531 54° Northeast 465 535 37,000  Level Albuquerque Center
Sat 04:27:05 PM 35.5997 -110.1097 54° Northeast 464 534 37,000  Level Albuquerque Center
Sat 04:28:07 PM 35.6739 -109.9867 53° Northeast 466 536 37,000  Level Albuquerque Center
Sat 04:29:08 PM 35.7567 -109.8422 55° Northeast 463 533 37,000  Level Albuquerque Center
Sat 04:30:10 PM 35.8297 -109.7194 54° Northeast 463 533 37,000  Level Albuquerque Center
Sat 04:31:11 PM 35.9011 -109.5958 54° Northeast 462 532 37,000  Level Albuquerque Center
Sat 04:32:13 PM 35.9844 -109.4519 54° Northeast 461 531 37,000  Level Albuquerque Center
Sat 04:33:14 PM 36.0894 -109.3808 29° Northeast 455 524 37,000  Level Albuquerque Center
Sat 04:34:16 PM 36.2067 -109.3394 16° North 453 521 37,000  Level Albuquerque Center
Sat 04:35:33 PM 36.3444 -109.2944 15° North 454 522 37,000  Level Denver Center
Sat 04:36:35 PM 36.5003 -109.2389 16° North 452 520 37,000  Level Denver Center
Sat 04:37:37 PM 36.6172 -109.1964 16° North 455 524 37,000  Level Denver Center
Sat 04:38:39 PM 36.7536 -109.1500 15° North 454 522 37,000  Level Denver Center
Sat 04:39:41 PM 36.8692 -109.1078 16° North 452 520 37,000  Level Denver Center
Sat 04:40:43 PM 37.0039 -109.0594 16° North 451 519 37,000  Level Denver Center
Sat 04:41:45 PM 37.1181 -109.0192 16° North 446 513 37,000  Level Denver Center
Sat 04:42:47 PM 37.2328 -108.9789 16° North 447 514 37,000 88 Level Denver Center
Sat 04:44:01 PM 37.3689 -108.9800 360° North 444 511 37,200 441 Climbing Denver Center
Sat 04:45:03 PM 37.5117 -108.9081 22° Northeast 451 519 38,000 387 Climbing Denver Center
Sat 04:46:05 PM 37.5667 -108.7731 63° Northeast 450 518 38,000  Level Denver Center
Sat 04:47:07 PM 37.6019 -108.6019 75° East 451 519 38,000  Level Denver Center
Sat 04:48:08 PM 37.6392 -108.4600 72° East 448 516 38,000  Level Denver Center
Sat 04:49:10 PM 37.7147 -108.3422 51° Northeast 450 518 38,000  Level Denver Center
Sat 04:50:12 PM 37.8194 -108.2292 40° Northeast 448 516 38,000 -145 Level Denver Center
Sat 04:51:14 PM 37.9119 -108.1361 38° Northeast 444 511 37,700 -484 Descending Denver Center
Sat 04:52:16 PM 38.0178 -108.0197 41° Northeast 451 519 37,000 -339 Descending Denver Center
Sat 04:53:18 PM 38.1081 -107.9194 41° Northeast 455 524 37,000  Level Denver Center
Sat 04:54:20 PM 38.2167 -107.8019 40° Northeast 457 526 37,000  Level Denver Center
Sat 04:55:22 PM 38.3086 -107.7025 40° Northeast 455 524 37,000  Level Denver Center
Sat 04:56:24 PM 38.4156 -107.5883 40° Northeast 452 520 37,000  Level Denver Center
Sat 04:57:25 PM 38.5069 -107.4869 41° Northeast 453 521 37,000  Level Denver Center
Sat 04:58:27 PM 38.6117 -107.3711 41° Northeast 450 518 37,000  Level Denver Center
Sat 04:59:29 PM 38.7017 -107.2711 41° Northeast 448 516 37,000  Level Denver Center
Sat 05:00:31 PM 38.7981 -107.1650 41° Northeast 448 516 37,000  Level Denver Center
Sat 05:01:45 PM 38.8969 -107.0539 41° Northeast 449 517 37,000  Level Denver Center
Sat 05:02:47 PM 39.0158 -106.9197 41° Northeast 447 514 37,000  Level Denver Center
Sat 05:03:49 PM 39.1058 -106.8183 41° Northeast 448 516 37,000  Level Denver Center
Sat 05:04:51 PM 39.2131 -106.6994 41° Northeast 454 522 37,000  Level Denver Center
Sat 05:05:53 PM 39.3250 -106.6450 21° North 449 517 37,000  Level Denver Center
Sat 05:06:55 PM 39.4547 -106.5842 20° North 445 512 37,000  Level Denver Center
Sat 05:07:57 PM 39.5664 -106.5328 20° North 446 513 37,000  Level Denver Center
Sat 05:08:59 PM 39.6733 -106.4850 19° North 448 516 37,000  Level Denver Center
Sat 05:10:01 PM 39.7775 -106.3669 41° Northeast 451 519 37,000  Level Denver Center
Sat 05:11:03 PM 39.8572 -106.2336 52° Northeast 461 531 37,000  Level Denver Center
Sat 05:12:05 PM 39.9464 -106.0683 55° Northeast 464 534 37,000  Level Denver Center
Sat 05:13:06 PM 40.0278 -105.9403 50° Northeast 460 529 37,000  Level Denver Center
Sat 05:14:08 PM 40.1103 -105.8111 50° Northeast 459 528 37,000  Level Denver Center
Sat 05:15:10 PM 40.1911 -105.6794 51° Northeast 462 532 37,000  Level Denver Center
Sat 05:16:12 PM 40.2725 -105.5494 51° Northeast 463 533 37,000  Level Denver Center
Sat 05:17:14 PM 40.3547 -105.4175 51° Northeast 466 536 37,000  Level Denver Center
Sat 05:18:16 PM 40.4447 -105.2986 45° Northeast 459 528 37,000  Level Denver Center
Sat 05:19:18 PM 40.5392 -105.1803 44° Northeast 468 539 37,000  Level Denver Center
Sat 05:20:20 PM 40.6531 -105.0475 41° Northeast 455 524 37,000  Level Denver Center
Sat 05:21:21 PM 40.7269 -104.9561 43° Northeast 456 525 37,000  Level Denver Center
Sat 05:22:23 PM 40.8375 -104.8128 44° Northeast 459 528 37,000  Level Denver Center
Sat 05:23:25 PM 40.9308 -104.7014 42° Northeast 453 521 37,000  Level Denver Center
Sat 05:24:27 PM 41.0256 -104.5822 43° Northeast 458 527 37,000  Level Denver Center
Sat 05:25:41 PM 41.1283 -104.4533 43° Northeast 455 524 37,000  Level Denver Center
Sat 05:26:43 PM 41.2289 -104.3281 43° Northeast 446 513 37,000  Level Denver Center
Sat 05:27:45 PM 41.3300 -104.2044 43° Northeast 444 511 37,000  Level Denver Center
Sat 05:28:47 PM 41.4158 -104.0931 44° Northeast 447 514 37,000  Level Denver Center
Sat 05:29:49 PM 41.5144 -103.9672 44° Northeast 442 509 37,000  Level Denver Center
Sat 05:30:51 PM 41.5997 -103.8597 43° Northeast 441 507 37,000  Level Denver Center
Sat 05:31:53 PM 41.6958 -103.7361 44° Northeast 433 498 37,000  Level Denver Center
Sat 05:32:55 PM 41.7781 -103.6300 44° Northeast 432 497 37,000  Level Denver Center
Sat 05:33:57 PM 41.8733 -103.5033 45° Northeast 433 498 37,000  Level Denver Center
Sat 05:35:11 PM 41.9117 -103.3511 71° East 458 527 37,000  Level Denver Center
Sat 05:36:14 PM 41.9417 -103.1333 79° East 467 537 37,000  Level Denver Center
Sat 05:37:16 PM 41.9678 -102.9439 79° East 463 533 37,000  Level Denver Center
Sat 05:38:18 PM 41.9908 -102.7822 79° East 462 532 37,000  Level Denver Center
Sat 05:39:20 PM 42.0164 -102.5917 80° East 464 534 37,000  Level Denver Center
Sat 05:40:22 PM 42.0381 -102.4297 80° East 462 532 37,000  Level Denver Center
Sat 05:41:24 PM 42.0581 -102.2689 80° East 459 528 37,000  Level Denver Center
Sat 05:42:26 PM 42.0861 -102.0694 79° East 462 532 37,000  Level Denver Center
Sat 05:43:28 PM 42.1072 -101.9069 80° East 461 531 37,000  Level Denver Center
Sat 05:44:30 PM 42.1308 -101.7161 80° East 462 532 37,000  Level Denver Center
Sat 05:45:32 PM 42.1522 -101.5500 80° East 467 537 37,000  Level Denver Center
Sat 05:46:34 PM 42.1731 -101.3847 80° East 467 537 37,000  Level Denver Center
Sat 05:47:36 PM 42.1967 -101.1917 81° East 466 536 37,000  Level Denver Center
Sat 05:48:38 PM 42.2119 -101.0536 81° East 466 536 37,000  Level Denver Center
Sat 05:49:52 PM 42.2372 -100.8364 81° East 459 528 37,000  Level Denver Center
Sat 05:50:54 PM 42.2594 -100.6422 81° East 465 535 37,000  Level Denver Center
Sat 05:51:56 PM 42.2825 -100.4489 81° East 466 536 37,000  Level Denver Center
Sat 05:52:46 PM 42.2978 -100.3136 81° East 470 541 37,000  Level Minneapolis Center
Sat 05:53:47 PM 42.3178 -100.1386 81° East 472 543 37,000  Level Minneapolis Center
Sat 05:54:49 PM 42.3369 -99.9639 82° East 471 542 37,000  Level Minneapolis Center
Sat 05:55:51 PM 42.3569 -99.7892 81° East 470 541 37,000  Level Minneapolis Center
Sat 05:57:06 PM 42.3839 -99.5419 82° East 471 542 37,000  Level Denver Center
Sat 05:58:08 PM 42.4019 -99.3661 82° East 471 542 37,000  Level Denver Center
Sat 05:59:09 PM 42.4214 -99.1911 81° East 472 543 37,000  Level Minneapolis Center
Sat 06:00:14 PM 42.4383 -99.0139 83° East 474 545 37,000  Level Minneapolis Center
Sat 06:01:16 PM 42.4558 -98.8386 82° East 471 542 37,000  Level Minneapolis Center
Sat 06:02:18 PM 42.4750 -98.6278 83° East 470 541 37,000  Level Minneapolis Center
Sat 06:03:20 PM 42.4836 -98.4472 86° East 476 548 37,000  Level Minneapolis Center
Sat 06:04:22 PM 42.4911 -98.2658 87° East 479 551 37,000  Level Minneapolis Center
Sat 06:05:24 PM 42.4994 -98.0864 86° East 478 550 37,000  Level Minneapolis Center
Sat 06:06:25 PM 42.5069 -97.9078 87° East 475 547 37,000  Level Minneapolis Center
Sat 06:07:39 PM 42.5158 -97.7300 86° East 474 545 37,000  Level Minneapolis Center
Sat 06:08:41 PM 42.5253 -97.5164 86° East 473 544 37,000  Level Minneapolis Center
Sat 06:09:43 PM 42.5314 -97.3383 87° East 474 545 37,000  Level Minneapolis Center
Sat 06:10:45 PM 42.5394 -97.1219 87° East 477 549 37,000  Level Minneapolis Center
Sat 06:11:47 PM 42.5475 -96.9419 86° East 478 550 37,000  Level Minneapolis Center
Sat 06:12:49 PM 42.5536 -96.7619 87° East 477 549 37,000  Level Minneapolis Center
Sat 06:13:51 PM 42.5600 -96.5842 87° East 474 545 37,000  Level Minneapolis Center
Sat 06:14:53 PM 42.5664 -96.4017 87° East 479 551 37,000  Level Minneapolis Center
Sat 06:15:55 PM 42.5714 -96.2217 88° East 478 550 37,000  Level Minneapolis Center
Sat 06:16:56 PM 42.5761 -96.0400 88° East 479 551 37,000  Level Minneapolis Center
Sat 06:17:58 PM 42.5808 -95.8600 88° East 477 549 37,000  Level Minneapolis Center
Sat 06:19:00 PM 42.5864 -95.6492 88° East 471 542 37,000  Level Minneapolis Center
Sat 06:20:02 PM 42.5903 -95.4703 88° East 472 543 37,000  Level Minneapolis Center
Sat 06:21:04 PM 42.5933 -95.2958 89° East 467 537 37,000  Level Minneapolis Center
Sat 06:22:05 PM 42.5975 -95.1208 88° East 464 534 37,000  Level Minneapolis Center
Sat 06:23:07 PM 42.6000 -94.9806 89° East 465 535 37,000  Level Minneapolis Center
Sat 06:24:09 PM 42.6028 -94.7700 89° East 464 534 37,000  Level Minneapolis Center
Sat 06:25:23 PM 42.6053 -94.5683 89° East 464 534 37,000  Level Minneapolis Center
Sat 06:26:25 PM 42.6094 -94.3608 88° East 463 533 37,000  Level Minneapolis Center
Sat 06:27:27 PM 42.6072 -94.1869 91° East 464 534 37,000  Level Minneapolis Center
Sat 06:28:29 PM 42.6003 -94.0136 93° East 464 534 37,000  Level Minneapolis Center
Sat 06:29:31 PM 42.5958 -93.8411 92° East 463 533 37,000  Level Minneapolis Center
Sat 06:30:33 PM 42.5883 -93.6331 93° East 465 535 37,000  Level Minneapolis Center
Sat 06:31:34 PM 42.5825 -93.4603 93° East 462 532 37,000  Level Minneapolis Center
Sat 06:32:36 PM 42.5764 -93.2872 93° East 464 534 37,000  Level Minneapolis Center
Sat 06:33:38 PM 42.5692 -93.1158 93° East 461 531 37,000  Level Minneapolis Center
Sat 06:34:12 PM 42.5650 -93.0111 93° East 462 532 37,000  Level Chicago Center
Sat 06:35:14 PM 42.5581 -92.8372 93° East 465 535 37,000 -293 Level Chicago Center
Sat 06:36:15 PM 42.5500 -92.6650 94° East 465 535 36,400 -927 Descending Chicago Center
Sat 06:37:17 PM 42.5411 -92.4544 93° East 470 541 35,100 -1,452 Descending Chicago Center
Sat 06:38:19 PM 42.5336 -92.2789 93° East 471 542 33,400 -1,790 Descending Chicago Center
Sat 06:39:21 PM 42.5253 -92.1028 94° East 474 545 31,400 -1,171 Descending Chicago Center
Sat 06:40:22 PM 42.5244 -91.9275 90° East 475 547 31,000 -195 Descending Chicago Center
Sat 06:41:24 PM 42.5253 -91.7633 90° East 450 518 31,000  Level Chicago Center
Sat 06:42:26 PM 42.5275 -91.5839 89° East 411 473 31,000 -97 Level Chicago Center
Sat 06:43:28 PM 42.5275 -91.4339 90° East 407 468 30,800 -829 Descending Chicago Center
Sat 06:44:29 PM 42.5272 -91.2850 90° East 404 465 29,300 -1,268 Descending Chicago Center
Sat 06:45:31 PM 42.5275 -91.1381 90° East 398 458 28,200 -1,500 Descending Chicago Center
Sat 06:46:33 PM 42.5564 -90.9781 76° East 383 441 26,200 -1,548 Descending Chicago Center
Sat 06:47:35 PM 42.6269 -90.8831 45° Northeast 363 418 25,000 -585 Descending Chicago Center
Sat 06:48:36 PM 42.7006 -90.7919 42° Northeast 362 417 25,000  Level Chicago Center
Sat 06:49:38 PM 42.7697 -90.6939 46° Northeast 365 420 25,000 -48 Level Chicago Center
Sat 06:50:40 PM 42.7764 -90.5544 86° East 384 442 24,900 -484 Descending Chicago Center
Sat 06:51:42 PM 42.7189 -90.3828 114° Southeast 421 484 24,000 -439 Descending Chicago Center
Sat 06:52:43 PM 42.6714 -90.2397 114° Southeast 419 482 24,000  Level Chicago Center
Sat 06:53:45 PM 42.6269 -90.1011 114° Southeast 406 467 24,000  Level Chicago Center
Sat 06:54:47 PM 42.5806 -89.9639 115° Southeast 406 467 24,000 -585 Level Chicago Center
Sat 06:55:48 PM 42.5333 -89.8244 115° Southeast 401 461 22,800 -1,512 Descending Chicago Center
Sat 06:56:50 PM 42.5175 -89.6839 99° East 382 440 20,900 -1,984 Descending Chicago Center
Sat 06:57:52 PM 42.5139 -89.5189 92° East 376 433 18,700 -1,645 Descending Chicago Center
Sat 06:58:54 PM 42.5114 -89.3822 91° East 367 422 17,500 -976 Descending Chicago Center
Sat 06:59:55 PM 42.5092 -89.2464 91° East 362 417 16,700 -780 Descending Chicago Center
Sat 07:00:57 PM 42.5078 -89.1114 91° East 361 415 15,900 -823 Descending Chicago Center
Sat 07:01:59 PM 42.5078 -88.9839 90° East 343 395 15,000 -919 Descending Chicago Center
Sat 07:03:01 PM 42.4900 -88.8750 102° East 307 353 14,000 -1,113 Descending Chicago Center
Sat 07:04:03 PM 42.4525 -88.7544 113° Southeast 300 345 12,700 -1,366 Descending Chicago Center
Sat 07:05:04 PM 42.4222 -88.6511 112° Southeast 297 342 11,200 -1,561 Descending Chicago Center
Sat 07:06:06 PM 42.3897 -88.5494 113° Southeast 295 339 9,500 -1,065 Descending Chicago Center
Sat 07:07:08 PM 42.3592 -88.4511 113° Southeast 287 330 9,000 -726 Descending Chicago Center
Sat 07:08:10 PM 42.2858 -88.4250 165° South 293 337 8,000 -484 Descending Chicago Center
Sat 07:09:12 PM 42.2114 -88.4683 203° Southwest 296 341 8,000  Level Chicago Center
Sat 07:10:14 PM 42.1433 -88.4692 181° South 256 295 8,000  Level Chicago Center
Sat 07:11:15 PM 42.0875 -88.4894 195° South 222 255 8,000  Level Chicago Center
Sat 07:12:17 PM 42.0275 -88.5336 209° Southwest 208 239 8,000  Level Chicago Center
Sat 07:13:19 PM 41.9786 -88.5272 174° South 222 255 8,000 -484 Level Chicago Center
Sat 07:14:21 PM 41.9700 -88.4614 100° East 184 212 7,000 -871 Descending Chicago Center
Sat 07:15:23 PM 41.9683 -88.3950 92° East 181 208 6,200 -629 Descending Chicago Center
Sat 07:16:25 PM 41.9669 -88.3306 92° East 176 203 5,700 -484 Descending Chicago Center
Sat 07:17:27 PM 41.9669 -88.2653 90° East 176 203 5,200 -634 Descending Chicago Center
Sat 07:18:28 PM 41.9678 -88.1889 89° East 173 199 4,400 -732 Descending Chicago Center
Sat 07:19:30 PM 41.9681 -88.1236 90° East 174 200 3,700 -677 Descending Chicago Center

Login

Don't have an account? Register now (free) for customized features, flight alerts, and more!